Time;durP1;ratioP1;P1;durP2;ratioP2;P2;SDS_P1;SDS_P2;PMS_P1;PMS_P2;Temp;Humidity;BMP_temperature;BMP_pressure;BME280_temperature;BME280_humidity;BME280_pressure;Samples;Min_cycle;Max_cycle;Signal;HPM_P1;HPM_P2
2022/02/04 00:09:11;;;;;;;57.80;31.67;;;;;;;-10.98;73.47;101565.44;5074332;28;20044;-63
2022/02/04 00:25:09;;;;;;;62.25;34.05;;;;;;;-11.03;74.28;101580.03;5073723;28;20040;-63
2022/02/04 00:27:36;;;;;;;59.95;32.28;;;;;;;-11.11;74.02;101558.63;5073629;28;20086;-64
2022/02/04 00:30:11;;;;;;;56.83;32.40;;;;;;;-11.00;74.41;101574.84;5073743;28;20040;-64
2022/02/04 00:32:39;;;;;;;60.80;33.47;;;;;;;-11.00;73.91;101569.72;5073557;28;20036;-64
2022/02/04 00:35:17;;;;;;;54.42;31.92;;;;;;;-11.14;74.24;101545.78;5073671;28;20025;-65
2022/02/04 00:40:36;;;;;;;63.00;33.55;;;;;;;-11.13;73.62;101550.06;5065490;28;20515;-65
2022/02/04 00:43:06;;;;;;;52.38;33.20;;;;;;;-11.16;73.41;101544.94;5055667;28;20028;-65
2022/02/04 00:45:49;;;;;;;63.72;33.20;;;;;;;-11.13;74.05;101551.78;5073299;28;20085;-64
2022/02/04 00:49:05;;;;;;;57.90;34.55;;;;;;;-11.08;73.66;101557.75;5073345;28;20102;-65
2022/02/04 00:53:48;;;;;;;59.05;31.25;;;;;;;-11.10;73.56;101555.19;5073324;28;20389;-65
2022/02/04 01:28:27;;;;;;;65.10;32.30;;;;;;;-11.39;74.69;101562.16;5073592;28;20100;-62
2022/02/04 01:30:54;;;;;;;60.30;34.20;;;;;;;-11.37;74.42;101557.88;5055681;28;20036;-65
2022/02/04 01:33:20;;;;;;;65.57;34.92;;;;;;;-11.42;74.36;101544.19;5072548;28;20437;-63
2022/02/04 01:35:46;;;;;;;66.37;34.00;;;;;;;-11.46;74.37;101529.66;5072125;28;20035;-63
2022/02/04 01:38:11;;;;;;;57.60;34.00;;;;;;;-11.40;74.37;101550.19;5054461;28;20105;-63
2022/02/04 01:40:38;;;;;;;63.53;35.37;;;;;;;-11.36;73.80;101549.31;5072215;28;20480;-63
2022/02/04 01:43:04;;;;;;;66.43;33.17;;;;;;;-11.22;73.56;101559.56;5072100;28;20492;-64
2022/02/04 01:45:30;;;;;;;63.60;34.70;;;;;;;-11.21;73.94;101558.69;5072947;28;20058;-64
2022/02/04 01:47:56;;;;;;;126.60;48.23;;;;;;;-11.27;73.77;101552.72;5073243;28;20051;-62
2022/02/04 01:50:26;;;;;;;85.93;42.88;;;;;;;-11.42;74.48;101539.06;5072747;28;20043;-63
2022/02/04 01:52:52;;;;;;;106.68;46.33;;;;;;;-11.38;74.22;101544.16;5072619;28;20042;-66
2022/02/04 01:55:17;;;;;;;160.80;61.63;;;;;;;-11.44;73.44;101539.06;5072029;28;20036;-62
2022/02/04 01:57:44;;;;;;;183.63;68.80;;;;;;;-11.45;73.19;101557.06;5072059;28;20040;-62
2022/02/04 02:00:11;;;;;;;150.95;62.90;;;;;;;-11.41;74.21;101569.88;5071904;28;20040;-64
2022/02/04 02:02:36;;;;;;;133.50;50.22;;;;;;;-11.40;73.50;101570.75;5071978;28;20036;-63
2022/02/04 02:05:02;;;;;;;124.30;51.17;;;;;;;-11.47;73.53;101557.06;5071878;28;20036;-64
2022/02/04 02:07:30;;;;;;;131.35;54.08;;;;;;;-11.54;73.63;101562.25;5071712;28;20411;-62
2022/02/04 02:12:33;;;;;;;107.25;45.75;;;;;;;-11.48;73.58;101572.50;5072881;28;20143;-64
2022/02/04 02:47:12;;;;;;;45.83;29.83;;;;;;;-11.74;74.92;101586.25;5071226;28;20041;-64
2022/02/04 03:00:00;;;;;;;65.45;32.58;;;;;;;-11.81;74.29;101605.13;5079203;28;20120;-64
2022/02/04 03:02:26;;;;;;;61.85;34.85;;;;;;;-11.87;73.89;101574.28;5075421;28;20043;-64
2022/02/04 03:04:51;;;;;;;65.70;34.13;;;;;;;-11.80;73.78;101593.16;5075653;28;20036;-63
2022/02/04 03:07:17;;;;;;;56.07;30.17;;;;;;;-11.89;73.89;101581.16;5075822;28;20487;-67
2022/02/04 03:09:42;;;;;;;68.43;34.33;;;;;;;-11.93;73.77;101587.16;5059547;28;20043;-64
2022/02/04 03:12:10;;;;;;;68.37;36.60;;;;;;;-12.09;73.48;101582.91;5077352;28;20063;-65
2022/02/04 03:14:35;;;;;;;72.10;38.55;;;;;;;-12.18;74.20;101598.28;5077377;28;20084;-67
2022/02/04 03:17:02;;;;;;;72.37;35.40;;;;;;;-12.13;73.98;101607.72;5058146;28;20068;-62
2022/02/04 03:19:28;;;;;;;71.70;39.28;;;;;;;-12.18;73.46;101611.13;5076121;28;20032;-63
2022/02/04 03:21:55;;;;;;;67.60;34.42;;;;;;;-12.26;73.86;101606.84;5075449;28;20079;-66
2022/02/04 03:24:23;;;;;;;66.05;37.83;;;;;;;-12.22;73.34;101608.56;5075002;28;20055;-64
2022/02/04 03:26:58;;;;;;;70.38;33.53;;;;;;;-12.24;74.05;101600.00;5040737;28;20442;-65
2022/02/04 03:29:34;;;;;;;64.60;35.35;;;;;;;-12.08;73.19;101616.28;5075556;28;20071;-64
2022/02/04 03:32:05;;;;;;;57.97;34.30;;;;;;;-12.12;73.00;101604.28;5075245;28;20143;-67
2022/02/04 03:34:31;;;;;;;66.45;34.92;;;;;;;-12.01;72.92;101619.69;5075695;28;20123;-64
2022/02/04 03:36:57;;;;;;;77.93;37.23;;;;;;;-12.01;73.08;101622.25;5075573;28;20131;-65
2022/02/04 03:39:22;;;;;;;58.77;32.73;;;;;;;-12.40;72.42;101562.34;5075104;28;20278;-64
2022/02/04 03:41:48;;;;;;;65.60;33.80;;;;;;;-11.99;72.52;101620.53;5075068;28;20033;-66
2022/02/04 03:44:13;;;;;;;66.77;31.43;;;;;;;-12.06;72.81;101613.72;5075224;28;20036;-65
2022/02/04 03:46:39;;;;;;;69.23;36.17;;;;;;;-12.09;72.38;101611.16;5075782;28;20032;-63
2022/02/04 03:49:04;;;;;;;68.00;33.20;;;;;;;-12.02;72.70;101628.25;5074719;28;20025;-63
2022/02/04 03:51:30;;;;;;;68.97;35.53;;;;;;;-12.04;72.90;101632.53;5057036;28;20036;-64
2022/02/04 03:53:55;;;;;;;78.13;36.97;;;;;;;-12.90;73.89;101499.00;5074759;28;20066;-64
2022/02/04 03:56:21;;;;;;;68.23;33.57;;;;;;;-12.25;73.63;101617.97;5074458;28;20127;-66
2022/02/04 03:58:47;;;;;;;66.97;35.20;;;;;;;-12.22;73.50;101639.34;5056767;28;20035;-65
2022/02/04 04:01:12;;;;;;;75.00;37.60;;;;;;;-12.65;73.37;101576.00;5075861;28;20040;-64
2022/02/04 04:03:38;;;;;;;67.93;36.60;;;;;;;-12.33;73.99;101641.06;5075099;28;20040;-63
2022/02/04 04:06:04;;;;;;;71.67;37.63;;;;;;;-12.43;73.80;101625.63;5078307;28;20071;-65
2022/02/04 04:08:30;;;;;;;69.25;39.15;;;;;;;-12.44;74.12;101623.91;5077881;28;20039;-63
2022/02/04 04:10:58;;;;;;;73.57;40.53;;;;;;;-12.43;73.71;101626.50;5075120;28;20060;-64
2022/02/04 04:13:25;;;;;;;65.10;33.63;;;;;;;-12.37;73.56;101631.66;5074606;28;20048;-63
2022/02/04 04:15:51;;;;;;;71.82;36.28;;;;;;;-12.31;73.50;101634.22;5060407;28;20546;-66
2022/02/04 04:18:16;;;;;;;70.30;35.17;;;;;;;-12.39;73.34;101614.53;5081471;28;20074;-63
2022/02/04 04:20:46;;;;;;;65.97;36.93;;;;;;;-12.30;74.11;101617.97;5065300;28;20059;-65
2022/02/04 04:23:13;;;;;;;60.50;32.75;;;;;;;-12.48;73.32;101592.25;5082545;28;20111;-67
2022/02/04 04:25:39;;;;;;;67.60;32.50;;;;;;;-12.33;73.59;101630.78;5082398;28;20480;-65
2022/02/04 04:28:05;;;;;;;64.95;33.33;;;;;;;-12.40;75.03;101612.81;5064398;28;20036;-64
2022/02/04 04:30:31;;;;;;;86.55;31.48;;;;;;;-12.46;75.47;101603.38;5074999;28;20067;-64
2022/02/04 04:32:58;;;;;;;60.67;29.00;;;;;;;-12.39;75.02;101615.41;5023796;28;20560;-65
2022/02/04 04:35:25;;;;;;;50.85;27.40;;;;;;;-12.40;73.66;101623.94;5063853;28;20032;-67
2022/02/04 04:40:54;;;;;;;49.53;28.35;;;;;;;-12.59;74.24;101624.75;5083539;28;20039;-69
2022/02/04 05:29:18;;;;;;;63.57;30.10;;;;;;;-12.92;75.46;101638.34;5072572;28;20039;-67
2022/02/04 05:31:44;;;;;;;64.50;33.97;;;;;;;-12.85;74.66;101629.81;5038073;28;20415;-64
2022/02/04 05:34:11;;;;;;;63.20;32.17;;;;;;;-12.88;73.75;101648.59;5072430;28;20454;-65
2022/02/04 05:36:42;;;;;;;75.95;34.15;;;;;;;-13.00;74.87;101650.28;5054514;28;20043;-65
2022/02/04 05:39:08;;;;;;;76.03;35.70;;;;;;;-13.19;75.13;101627.13;5072670;28;20036;-64
2022/02/04 05:41:38;;;;;;;72.93;39.03;;;;;;;-13.26;74.27;101621.97;5072229;28;20035;-67
2022/02/04 05:44:08;;;;;;;71.75;34.35;;;;;;;-13.30;74.71;101645.84;5072179;28;20040;-66
2022/02/04 05:46:45;;;;;;;79.90;38.88;;;;;;;-13.39;75.53;101630.44;5072256;28;20051;-65
2022/02/04 05:49:12;;;;;;;85.60;41.13;;;;;;;-13.53;75.06;101638.06;5072661;28;20036;-67
2022/02/04 05:54:17;;;;;;;72.93;39.20;;;;;;;-13.51;75.85;101633.78;5072042;28;20491;-66
2022/02/04 05:57:07;;;;;;;87.20;41.83;;;;;;;-13.50;75.61;101641.47;5053724;28;20523;-63
2022/02/04 06:22:08;;;;;;;96.07;47.85;;;;;;;-13.60;75.82;101626.03;5072029;28;20515;-61
2022/02/04 06:23:52;;;;;;;105.50;50.83;;;;;;;-13.67;76.20;101621.72;5071788;28;20032;-62
2022/02/04 06:26:18;;;;;;;92.50;43.03;;;;;;;-13.66;76.29;101628.56;5071371;28;20500;-63
2022/02/04 06:28:44;;;;;;;115.80;49.53;;;;;;;-13.78;76.12;101621.66;5037989;28;20032;-63
2022/02/04 06:31:10;;;;;;;99.47;48.27;;;;;;;-13.62;76.65;101638.81;5075295;28;20036;-65
2022/02/04 06:33:36;;;;;;;107.85;50.65;;;;;;;-13.58;75.89;101642.28;5061462;28;20407;-64
2022/02/04 06:36:02;;;;;;;106.35;52.35;;;;;;;-13.56;76.16;101638.88;5060172;28;20348;-64
2022/02/04 06:38:28;;;;;;;103.75;47.30;;;;;;;-13.48;75.66;101637.22;5078198;28;20060;-63
2022/02/04 06:40:54;;;;;;;108.50;45.63;;;;;;;-13.46;75.79;101637.22;5078324;28;20032;-62
2022/02/04 06:43:20;;;;;;;102.43;47.33;;;;;;;-13.52;75.99;101625.25;5078249;28;20041;-63
2022/02/04 06:45:45;;;;;;;127.17;50.70;;;;;;;-13.45;76.14;101631.25;5078092;28;20506;-63
2022/02/04 06:48:11;;;;;;;126.83;54.03;;;;;;;-13.53;76.61;101632.94;5077716;28;20511;-63
2022/02/04 06:50:37;;;;;;;121.43;55.57;;;;;;;-13.55;76.73;101630.34;5077997;28;20055;-64
2022/02/04 06:53:04;;;;;;;115.53;53.17;;;;;;;-13.44;76.67;101647.50;5043717;28;20035;-62
2022/02/04 06:55:31;;;;;;;121.72;53.22;;;;;;;-13.96;76.89;101560.06;5060661;28;20388;-63
2022/02/04 06:57:58;;;;;;;122.45;50.20;;;;;;;-13.41;76.74;101639.81;5060371;28;20122;-64
2022/02/04 07:00:26;;;;;;;118.13;51.67;;;;;;;-13.36;76.61;101641.56;5078382;28;20039;-65
2022/02/04 07:02:53;;;;;;;105.32;48.50;;;;;;;-13.37;77.14;101621.91;5079282;28;20454;-65
2022/02/04 07:05:19;;;;;;;104.28;46.17;;;;;;;-13.25;76.56;101627.13;5080248;28;20032;-66
2022/02/04 07:07:57;;;;;;;106.05;45.78;;;;;;;-13.13;75.93;101634.81;5079742;28;20047;-65
2022/02/04 07:10:34;;;;;;;112.75;49.25;;;;;;;-13.01;75.66;101649.41;5084305;28;20491;-66
2022/02/04 07:13:13;;;;;;;117.53;47.65;;;;;;;-13.14;75.25;101632.25;5084467;28;20067;-66
2022/02/04 07:20:49;;;;;;;124.40;59.45;;;;;;;-13.01;75.88;101633.16;5084493;28;20028;-66
2022/02/04 07:23:14;;;;;;;129.53;54.27;;;;;;;-12.85;75.65;101663.16;5084055;28;20032;-65
2022/02/04 07:25:40;;;;;;;134.43;50.40;;;;;;;-12.91;75.26;101640.91;5085980;28;20035;-65
2022/02/04 07:28:06;;;;;;;135.37;55.80;;;;;;;-12.83;75.11;101659.72;5068937;28;20040;-65
2022/02/04 07:30:32;;;;;;;102.00;52.17;;;;;;;-12.71;74.90;101642.69;5084911;28;20043;-67
2022/02/04 07:33:16;;;;;;;139.80;58.10;;;;;;;-12.61;74.63;101631.59;5082413;28;20036;-63
2022/02/04 07:41:20;;;;;;;119.28;56.63;;;;;;;-12.52;74.66;101654.69;5079911;28;20035;-72
2022/02/04 07:44:22;;;;;;;;;;;;;;;;;;;;;
2022/02/04 07:46:48;;;;;;;114.15;54.67;;;;;;;-12.33;74.45;101648.75;5057974;28;20067;-72
2022/02/04 07:49:14;;;;;;;126.90;53.83;;;;;;;-12.13;74.20;101663.34;5063335;28;20044;-67
2022/02/04 07:51:40;;;;;;;137.43;56.93;;;;;;;-12.14;73.76;101625.66;5081354;28;20051;-72
2022/02/04 07:54:10;;;;;;;120.07;53.50;;;;;;;-11.79;73.11;101659.94;5059098;28;20039;-71
2022/02/04 07:56:37;;;;;;;129.68;60.08;;;;;;;-11.69;72.83;101641.06;5058203;28;20036;-72
2022/02/04 07:59:08;;;;;;;351.07;132.77;;;;;;;-11.63;72.05;101635.03;5078238;28;20040;-70
2022/02/04 08:01:34;;;;;;;169.02;74.18;;;;;;;-11.51;72.56;101644.47;5079186;28;20033;-71
2022/02/04 08:04:11;;;;;;;138.73;60.25;;;;;;;-11.37;72.37;101637.56;5079098;28;20086;-73
2022/02/04 08:06:42;;;;;;;136.25;62.90;;;;;;;-11.21;72.58;101612.69;5061380;28;20104;-72
2022/02/04 08:14:14;;;;;;;123.40;58.75;;;;;;;-10.66;71.83;101644.19;5060340;28;20452;-72
2022/02/04 08:24:37;;;;;;;165.60;70.28;;;;;;;-10.54;73.04;101643.28;5062474;28;20059;-69
2022/02/04 08:56:09;;;;;;;138.30;60.28;;;;;;;-9.94;73.62;101635.97;5079846;28;20043;-64
2022/02/04 08:58:40;;;;;;;119.20;52.80;;;;;;;-9.87;73.46;101641.06;5078145;28;20036;-65
2022/02/04 09:01:19;;;;;;;124.28;53.15;;;;;;;-10.07;73.85;101618.03;5079145;28;20136;-64
2022/02/04 09:06:15;;;;;;;105.03;45.43;;;;;;;-9.87;74.55;101632.47;5077230;28;20036;-67
2022/02/04 09:09:00;;;;;;;109.07;47.70;;;;;;;-9.96;74.29;101612.78;5075602;28;20497;-67
2022/02/04 09:19:19;;;;;;;135.77;60.03;;;;;;;-9.82;74.14;101628.16;5076038;28;20024;-66
2022/02/04 09:24:15;;;;;;;113.53;54.03;;;;;;;-9.78;74.09;101648.75;5078324;28;20032;-68
2022/02/04 09:26:41;;;;;;;115.75;51.22;;;;;;;-9.95;74.11;101601.63;5059923;28;20056;-66
2022/02/04 09:29:07;;;;;;;121.75;57.53;;;;;;;-9.44;74.06;101648.44;5059636;28;20065;-65
2022/02/04 09:31:35;;;;;;;113.83;53.57;;;;;;;-9.45;73.13;101638.97;5077578;28;20486;-66
2022/02/04 09:34:05;;;;;;;110.43;52.65;;;;;;;-9.45;73.43;101654.47;5043773;28;20036;-68
2022/02/04 09:36:31;;;;;;;120.05;54.13;;;;;;;-9.61;73.91;101629.66;5078508;28;20047;-63
2022/02/04 09:38:59;;;;;;;129.73;56.20;;;;;;;-9.58;73.97;101645.09;5077681;28;20044;-69
2022/02/04 09:41:25;;;;;;;113.20;52.00;;;;;;;-9.58;74.29;101655.41;5059181;28;20029;-68
2022/02/04 09:43:54;;;;;;;128.45;58.17;;;;;;;-9.73;74.86;101652.13;5077713;28;20059;-66
2022/02/04 09:46:22;;;;;;;125.88;56.70;;;;;;;-9.77;74.82;101637.56;5074021;28;20509;-71
2022/02/04 09:48:54;;;;;;;117.43;53.00;;;;;;;-9.65;74.79;101656.34;5059026;28;20484;-68
2022/02/04 09:51:26;;;;;;;125.68;58.78;;;;;;;-9.64;74.76;101656.34;5077062;28;20563;-68
2022/02/04 10:08:19;;;;;;;124.63;58.08;;;;;;;-8.99;73.30;101631.59;5078523;28;20044;-69
2022/02/04 10:14:40;;;;;;;135.88;62.83;;;;;;;-8.76;72.67;101654.56;5036639;28;20172;-67
2022/02/04 10:19:49;;;;;;;116.95;52.78;;;;;;;-8.68;72.82;101637.22;5058215;28;20033;-67
2022/02/04 10:22:29;;;;;;;125.60;61.25;;;;;;;-8.78;73.08;101620.16;5057527;28;20048;-68
2022/02/04 10:25:28;;;;;;;394.20;129.57;;;;;;;-9.01;73.12;101593.75;5075923;28;20029;-66
2022/02/04 10:28:41;;;;;;;141.90;62.33;;;;;;;-8.83;73.55;101627.09;5044142;28;20040;-69
2022/02/04 10:31:26;;;;;;;;;;;;;;;-8.82;73.47;101610.75;5075770;28;20053;-65
2022/02/04 10:34:23;;;;;;;132.43;59.30;;;;;;;-8.75;73.47;101604.63;5075149;28;19920;-68
2022/02/04 10:37:39;;;;;;;117.97;54.30;;;;;;;-8.64;73.58;101595.03;5040601;28;20277;-67
2022/02/04 10:41:00;;;;;;;133.18;64.68;;;;;;;-8.48;73.17;101591.31;5060957;28;20056;-67
2022/02/04 10:46:21;;;;;;;136.43;65.82;;;;;;;-8.29;72.52;101588.44;5049877;28;20044;-68
2022/02/04 10:55:06;;;;;;;129.57;61.05;;;;;;;-8.23;73.76;101562.50;5048002;28;20033;-66
2022/02/04 11:00:12;;;;;;;105.30;47.88;;;;;;;-8.39;73.54;101519.72;5054162;28;20032;-65
2022/02/04 11:03:01;;;;;;;85.35;41.88;;;;;;;-8.13;73.48;101544.22;5071667;28;20029;-65
2022/02/04 11:05:42;;;;;;;97.43;46.25;;;;;;;-8.09;72.60;101539.91;5054176;28;20047;-65
2022/02/04 11:08:42;;;;;;;83.47;39.83;;;;;;;-8.02;72.76;101525.13;5072233;28;20183;-66
2022/02/04 11:31:29;;;;;;;80.35;35.92;;;;;;;-7.41;72.02;101529.16;5074872;28;20045;-65
2022/02/04 11:56:56;;;;;;;61.13;31.27;;;;;;;-7.01;71.44;101500.72;5074243;28;20043;-64
2022/02/04 11:59:43;;;;;;;54.65;31.13;;;;;;;-7.00;71.64;101503.25;5074326;28;20090;-63
2022/02/04 12:02:29;;;;;;;61.85;31.55;;;;;;;-7.02;71.69;101501.59;5073776;28;20044;-66
2022/02/04 12:05:15;;;;;;;60.17;29.00;;;;;;;-6.99;72.08;101494.59;5073968;28;20082;-63
2022/02/04 12:07:50;;;;;;;54.17;28.83;;;;;;;-6.96;71.97;101491.94;5074393;28;20057;-64
2022/02/04 12:10:16;;;;;;;57.25;29.83;;;;;;;-6.96;71.26;101491.94;5074126;28;20458;-65
2022/02/04 12:12:52;;;;;;;63.20;27.77;;;;;;;-6.92;71.89;101492.75;5052489;28;20053;-65
2022/02/04 12:15:41;;;;;;;49.88;28.40;;;;;;;-7.03;71.58;101474.00;5052797;28;20036;-63
2022/02/04 12:18:12;;;;;;;52.67;26.58;;;;;;;-7.02;72.42;101481.72;5055258;28;20086;-69
2022/02/04 12:20:51;;;;;;;54.58;27.73;;;;;;;-6.98;72.42;101492.88;5036126;28;20044;-68
2022/02/04 12:23:26;;;;;;;;;;;;;;;-6.93;72.36;101491.06;5036675;28;20488;-70
2022/02/04 12:25:55;;;;;;;59.95;28.08;;;;;;;-7.02;72.23;101475.69;5053390;28;19921;-70
2022/02/04 12:28:41;;;;;;;55.13;27.83;;;;;;;-6.99;72.25;101484.25;5052595;28;20389;-70
2022/02/04 12:31:30;;;;;;;46.85;25.70;;;;;;;-7.10;72.44;101469.84;5054539;28;21052;-67
2022/02/04 12:34:12;;;;;;;55.10;28.83;;;;;;;-7.20;72.18;101467.47;5052470;28;20071;-73
2022/02/04 12:36:50;;;;;;;51.10;26.17;;;;;;;-7.14;72.95;101481.16;5036051;28;20040;-73
2022/02/04 12:39:17;;;;;;;47.67;27.02;;;;;;;-7.96;72.50;101355.25;5053949;28;20036;-74
2022/02/04 12:41:52;;;;;;;44.08;24.52;;;;;;;-7.15;73.07;101492.41;5053199;28;20055;-71
2022/02/04 12:44:20;;;;;;;53.25;26.02;;;;;;;-7.50;72.38;101426.72;5034987;28;20417;-68
2022/02/04 12:46:50;;;;;;;55.65;26.48;;;;;;;-7.36;72.91;101450.56;5034767;28;20044;-70
2022/02/04 12:49:19;;;;;;;51.92;26.38;;;;;;;-7.72;72.34;101378.91;5053390;28;20029;-69
2022/02/04 12:54:45;;;;;;;45.70;26.13;;;;;;;-7.08;72.16;101487.06;5052464;28;20052;-75
2022/02/04 13:08:19;;;;;;;52.70;26.25;;;;;;;-7.26;73.37;101454.63;5052994;28;20106;-69
2022/02/04 13:10:57;;;;;;;53.97;25.98;;;;;;;-7.27;73.71;101460.69;5035647;28;20033;-72
2022/02/04 13:13:29;;;;;;;55.78;26.90;;;;;;;-7.59;73.60;101411.38;5051790;28;20159;-71
2022/02/04 13:15:58;;;;;;;60.22;27.83;;;;;;;-7.32;73.60;101456.50;5053271;28;20081;-74
2022/02/04 13:18:25;;;;;;;60.50;27.60;;;;;;;-7.35;73.62;101457.44;5051867;28;20352;-70
2022/02/04 13:20:56;;;;;;;54.35;25.35;;;;;;;-7.35;74.05;101462.59;5053224;28;20033;-68
2022/02/04 13:23:27;;;;;;;53.25;27.88;;;;;;;-7.49;73.69;101438.78;5052889;28;20062;-65
2022/02/04 13:25:57;;;;;;;57.95;26.48;;;;;;;-7.42;74.02;101423.97;5052072;28;20032;-65
2022/02/04 13:28:33;;;;;;;40.90;24.08;;;;;;;-7.13;73.75;101452.66;5052550;28;20040;-66
2022/02/04 13:31:04;;;;;;;44.53;24.10;;;;;;;-7.01;73.37;101447.19;5051579;28;20036;-70
2022/02/04 13:33:39;;;;;;;41.97;23.48;;;;;;;-6.92;73.77;101440.97;5051790;28;20432;-68
2022/02/04 13:47:19;;;;;;;47.40;24.58;;;;;;;-7.11;75.03;101411.19;5053025;28;20140;-64
2022/02/04 13:55:31;;;;;;;37.40;21.63;;;;;;;-7.04;75.71;101394.63;5051496;28;20067;-72
2022/02/04 13:58:52;;;;;;;36.83;22.85;;;;;;;-6.77;75.54;101413.84;5051633;28;20040;-69
2022/02/04 14:03:22;;;;;;;31.90;20.13;;;;;;;-6.62;75.07;101414.34;5051159;28;20067;-65
2022/02/04 14:06:09;;;;;;;39.28;20.40;;;;;;;-6.62;75.35;101409.16;5052122;28;20278;-65
2022/02/04 14:08:48;;;;;;;36.45;17.98;;;;;;;-6.65;75.11;101419.59;5051286;28;20041;-70
2022/02/04 14:11:27;;;;;;;33.58;18.60;;;;;;;-6.66;75.13;101407.50;5050545;28;20135;-67
2022/02/04 14:13:58;;;;;;;29.38;17.00;;;;;;;-6.57;74.70;101409.03;5051775;28;20045;-72
2022/02/04 14:16:24;;;;;;;29.83;17.02;;;;;;;-6.60;75.47;101394.41;5052002;28;20097;-74
2022/02/04 14:18:50;;;;;;;34.40;17.48;;;;;;;-6.49;75.22;101396.72;5050980;28;20032;-68
2022/02/04 14:21:18;;;;;;;34.07;17.50;;;;;;;-6.45;75.33;101397.50;5034253;28;20511;-70
2022/02/04 14:23:48;;;;;;;21.63;14.15;;;;;;;-6.53;75.33;101389.06;5051945;28;20396;-68
2022/02/04 14:26:23;;;;;;;20.77;13.38;;;;;;;-6.58;75.29;101379.69;5051922;28;20068;-71
2022/02/04 14:28:55;;;;;;;20.58;14.23;;;;;;;-6.72;75.65;101388.69;5050497;28;20119;-70
2022/02/04 14:31:32;;;;;;;17.58;11.18;;;;;;;-6.73;76.23;101384.38;5050941;28;20041;-68
2022/02/04 14:37:00;;;;;;;19.25;13.43;;;;;;;-6.76;76.17;101395.69;5051377;28;20049;-68
2022/02/04 15:01:31;;;;;;;19.80;13.50;;;;;;;-6.64;76.59;101390.22;5059299;28;20052;-70
2022/02/04 15:06:35;;;;;;;23.08;12.55;;;;;;;-6.62;76.72;101387.56;5057367;28;20041;-69
2022/02/04 15:09:04;;;;;;;19.20;11.70;;;;;;;-6.69;76.53;101376.50;5056989;28;20037;-70
2022/02/04 15:11:35;;;;;;;19.05;10.82;;;;;;;-6.71;76.96;101365.31;5061667;28;20435;-68
2022/02/04 15:14:04;;;;;;;19.60;11.27;;;;;;;-6.74;76.65;101347.28;5057589;28;20043;-67
2022/02/04 15:16:30;;;;;;;;;;;;;;;-6.57;76.69;101358.06;5076486;28;20064;-68
2022/02/04 15:18:56;;;;;;;20.10;11.37;;;;;;;-6.68;76.30;101341.94;5075847;28;19927;-68
2022/02/04 15:21:25;;;;;;;23.47;13.10;;;;;;;-6.67;76.87;101346.22;5076460;28;20051;-67
2022/02/04 15:23:53;;;;;;;17.88;12.20;;;;;;;-6.62;76.62;101352.16;5075638;28;20224;-69
2022/02/04 15:26:21;;;;;;;24.90;14.48;;;;;;;-6.63;76.73;101347.88;5040464;28;20036;-69
2022/02/04 15:29:08;;;;;;;24.40;12.65;;;;;;;-6.62;76.43;101354.75;5058106;28;20128;-72
2022/02/04 15:31:44;;;;;;;28.27;14.20;;;;;;;-6.78;76.61;101309.41;5075685;28;20052;-67
2022/02/04 15:34:11;;;;;;;34.00;16.13;;;;;;;-6.59;76.21;101335.69;5057173;28;20215;-69
2022/02/04 15:36:42;;;;;;;34.90;18.00;;;;;;;-6.62;76.71;101338.34;5074727;28;20036;-67
2022/02/04 15:39:10;;;;;;;42.13;20.35;;;;;;;-6.68;76.78;101343.66;5057819;28;20410;-69
2022/02/04 15:41:38;;;;;;;34.58;16.45;;;;;;;-6.67;76.64;101333.25;5074986;28;20044;-73
2022/02/04 15:44:18;;;;;;;32.35;16.90;;;;;;;-6.91;76.60;101295.06;5075698;28;20028;-72
2022/02/04 16:05:05;;;;;;;34.10;19.10;;;;;;;-6.68;76.70;101351.44;5012474;28;20050;-72
2022/02/04 16:07:33;;;;;;;38.13;18.50;;;;;;;-6.67;76.50;101347.97;5036471;28;20201;-68
2022/02/04 16:10:06;;;;;;;40.88;18.75;;;;;;;-6.71;76.76;101341.16;5075503;28;20653;-69
2022/02/04 16:12:39;;;;;;;36.20;16.48;;;;;;;-6.70;76.46;101348.91;5039912;28;20048;-74
2022/02/04 16:15:19;;;;;;;38.30;18.60;;;;;;;-6.75;77.09;101330.03;5074158;28;20115;-77
2022/02/04 16:17:53;;;;;;;35.83;18.33;;;;;;;-6.70;76.47;101325.56;5074601;28;20499;-71
2022/02/04 16:20:27;;;;;;;40.47;18.00;;;;;;;-6.67;76.97;101322.91;5074389;28;20478;-74
2022/02/04 16:23:01;;;;;;;37.05;19.73;;;;;;;-6.61;76.79;101327.94;5040012;28;20037;-74
2022/02/04 16:30:38;;;;;;;31.25;15.38;;;;;;;-6.70;76.52;101311.78;5076243;28;20033;-66
2022/02/04 16:33:04;;;;;;;38.97;16.60;;;;;;;-6.75;76.68;101311.06;5057007;28;20051;-69
2022/02/04 16:35:30;;;;;;;37.13;17.23;;;;;;;-6.69;76.69;101316.91;5056649;28;20119;-69
2022/02/04 16:38:03;;;;;;;35.20;16.30;;;;;;;-6.67;76.30;101311.69;5055802;28;20373;-68
2022/02/04 16:40:34;;;;;;;30.02;15.85;;;;;;;-6.59;76.34;101325.31;5074097;28;20128;-71
2022/02/04 16:43:03;;;;;;;31.05;16.35;;;;;;;-6.68;75.92;101310.84;5055685;28;20109;-72
2022/02/04 16:45:31;;;;;;;33.20;18.38;;;;;;;-6.70;76.70;101311.78;5073184;28;20059;-65
2022/02/04 16:47:57;;;;;;;28.23;15.55;;;;;;;-7.00;76.80;101264.22;5073414;28;20040;-73
2022/02/04 16:50:49;;;;;;;39.38;17.92;;;;;;;-6.69;76.92;101308.28;5058967;28;20185;-69
2022/02/04 16:53:16;;;;;;;30.95;15.32;;;;;;;-6.68;76.61;101295.31;5073258;28;20093;-69
2022/02/04 16:55:42;;;;;;;29.30;16.53;;;;;;;-6.64;76.43;101296.09;5073372;28;20123;-72
2022/02/04 16:58:09;;;;;;;33.53;16.80;;;;;;;-6.75;76.56;101267.88;5072905;28;20117;-68
2022/02/04 17:00:35;;;;;;;31.73;15.52;;;;;;;-6.56;75.95;101300.19;5073198;28;20584;-67
2022/02/04 17:03:06;;;;;;;32.27;16.73;;;;;;;-6.61;76.13;101289.09;5055030;28;20143;-70
2022/02/04 17:06:14;;;;;;;33.40;15.90;;;;;;;-6.64;76.26;101291.78;5073030;28;20121;-67
2022/02/04 17:08:44;;;;;;;30.83;16.02;;;;;;;-6.57;75.90;101293.28;5060145;28;20040;-71
2022/02/04 17:11:12;;;;;;;38.60;15.73;;;;;;;-6.65;76.05;101269.34;5060281;28;20033;-68
2022/02/04 17:13:39;;;;;;;38.75;17.17;;;;;;;-6.54;76.61;101287.19;5077276;28;20067;-67
2022/02/04 17:16:05;;;;;;;32.78;16.35;;;;;;;-6.61;76.48;101270.97;5077104;28;20117;-68
2022/02/04 17:18:31;;;;;;;31.88;16.10;;;;;;;-6.56;76.51;101271.69;5055100;28;20036;-71
2022/02/04 17:20:57;;;;;;;29.90;16.10;;;;;;;-6.63;76.20;101257.19;5072926;28;20036;-73
2022/02/04 17:23:29;;;;;;;32.93;15.67;;;;;;;-6.61;76.42;101260.59;5072607;28;20066;-76
2022/02/04 17:25:57;;;;;;;28.95;17.40;;;;;;;-6.52;76.19;101271.59;5072283;28;20044;-69
2022/02/04 17:28:30;;;;;;;31.65;15.98;;;;;;;-6.58;76.26;101242.38;5072478;28;20046;-73
2022/02/04 17:30:57;;;;;;;31.63;16.70;;;;;;;-6.45;76.32;101267.94;5052596;28;20040;-67
2022/02/04 17:33:24;;;;;;;29.23;14.95;;;;;;;-6.82;75.86;101204.19;5054133;28;20055;-75
2022/02/04 17:35:51;;;;;;;31.10;14.82;;;;;;;-6.63;76.09;101246.84;5071667;28;20404;-74
2022/02/04 17:38:17;;;;;;;26.95;15.52;;;;;;;-6.67;75.85;101237.41;5071602;28;20040;-78
2022/02/04 17:40:42;;;;;;;32.97;17.13;;;;;;;-6.57;76.18;101240.63;5073107;28;20033;-71
2022/02/04 17:43:08;;;;;;;35.43;17.23;;;;;;;-6.57;76.29;101253.59;5055203;28;20095;-78
2022/02/04 17:45:34;;;;;;;37.30;19.67;;;;;;;-6.52;76.59;101254.31;5072179;28;20037;-70
2022/02/04 17:48:21;;;;;;;29.93;15.80;;;;;;;-6.55;76.55;101231.06;5072198;28;20036;-73
2022/02/04 17:51:04;;;;;;;27.17;15.80;;;;;;;-6.59;76.10;101239.81;5053459;28;20041;-73
2022/02/04 17:53:44;;;;;;;30.45;17.00;;;;;;;-6.79;76.07;101198.91;5068610;28;20039;-70
2022/02/04 18:01:58;;;;;;;30.15;14.52;;;;;;;-6.62;76.52;101217.44;5055125;28;20041;-71
2022/02/04 18:07:11;;;;;;;26.67;15.02;;;;;;;-6.88;76.32;101186.22;5058857;28;20075;-73
2022/02/04 18:09:38;;;;;;;26.83;15.18;;;;;;;-6.61;76.81;101226.91;5069185;28;20720;-69
2022/02/04 18:12:05;;;;;;;31.67;14.18;;;;;;;-6.59;76.18;101229.47;5076138;28;20036;-80
2022/02/04 18:14:31;;;;;;;25.48;14.98;;;;;;;-6.75;75.56;101205.72;5069923;28;20047;-73
2022/02/04 18:16:57;;;;;;;25.13;15.43;;;;;;;-6.65;76.44;101221.84;5036805;28;20399;-71